Time;durP1;ratioP1;P1;durP2;ratioP2;P2;SDS_P1;SDS_P2;PMS_P1;PMS_P2;Temp;Humidity;BMP_temperature;BMP_pressure;BME280_temperature;BME280_humidity;BME280_pressure;Samples;Min_cycle;Max_cycle;Signal;HPM_P1;HPM_P2
2024/02/03 00:01:40;;;;;;;;;;;;;;;;;;;;;
2024/02/03 00:26:19;;;;;;;;;;;;;;;;;;;;;
2024/02/03 00:31:23;;;;;;;;;;;;;;;;;;;;;
2024/02/03 00:35:58;;;;;;;;;;;;;;;;;;;;;
2024/02/03 00:53:43;;;;;;;;;;;;;;;;;;;;;
2024/02/03 00:58:18;;;;;;;;;;;;;;;;;;;;;
2024/02/03 01:03:00;;;;;;;17.10;12.50;;;;;;;8.12;100.00;100220.56;110591;1266;21961;-82
2024/02/03 01:11:43;;;;;;;;;;;;;;;;;;;;;
2024/02/03 01:26:48;;;;;;;;;;;;;;;;;;;;;
2024/02/03 01:31:19;;;;;;;12.70;11.50;;;;;;;9.04;100.00;100220.78;106714;1243;21982;-80
2024/02/03 01:35:46;;;;;;;;;;;;;;;;;;;;;
2024/02/03 01:45:22;;;;;;;;;;;;;;;;;;;;;
2024/02/03 01:49:14;;;;;;;15.20;13.80;;;;;;;8.17;100.00;100222.14;108318;1282;548476;-80
2024/02/03 01:53:46;;;;;;;15.50;14.00;;;;;;;8.10;100.00;100218.38;109759;1270;22444;-81
2024/02/03 02:03:03;;;;;;;;;;;;;;;;;;;;;
2024/02/03 02:06:42;;;;;;;;;;;;;;;;;;;;;
2024/02/03 02:31:20;;;;;;;;;;;;;;;;;;;;;
2024/02/03 03:11:40;;;;;;;;;;;;;;;;;;;;;
2024/02/03 03:15:23;;;;;;;9.30;8.40;;;;;;;8.24;100.00;100234.44;107885;1293;22002;-80
2024/02/03 03:30:37;;;;;;;6.80;6.20;;;;;;;9.50;100.00;100230.16;108388;1285;548260;-80
2024/02/03 03:35:01;;;;;;;7.20;6.50;;;;;;;9.23;100.00;100231.77;102358;1288;22427;-81
2024/02/03 03:47:31;;;;;;;;;;;;;;;;;;;;;
2024/02/03 03:50:51;;;;;;;7.90;7.20;;;;;;;8.11;100.00;100253.37;106272;1310;23701;-82
2024/02/03 03:59:28;;;;;;;;;;;;;;;;;;;;;
2024/02/03 04:03:41;;;;;;;;;;;;;;;;;;;;;
2024/02/03 04:11:48;;;;;;;8.50;7.80;;;;;;;7.90;100.00;100275.61;109052;1277;21990;-81
2024/02/03 04:15:26;;;;;;;8.60;7.80;;;;;;;7.89;100.00;100276.33;108792;1282;23227;-82
2024/02/03 04:19:05;;;;;;;7.90;7.10;;;;;;;7.83;100.00;100271.13;108668;1286;23142;-82
2024/02/03 04:23:03;;;;;;;;;;;;;;;;;;;;;
2024/02/03 04:31:12;;;;;;;;;;;;;;;;;;;;;
2024/02/03 04:35:05;;;;;;;8.50;7.70;;;;;;;7.72;100.00;100272.13;108200;1292;23627;-81
2024/02/03 04:58:53;;;;;;;;;;;;;;;;;;;;;
2024/02/03 05:02:41;;;;;;;7.80;7.10;;;;;;;9.06;100.00;100254.75;103987;1281;22368;-81
2024/02/03 05:10:38;;;;;;;;;;;;;;;;;;;;;
2024/02/03 05:13:27;;;;;;;8.60;7.80;;;;;;;8.18;100.00;100246.57;107475;1300;22009;-80
2024/02/03 05:16:35;;;;;;;8.10;7.30;;;;;;;8.12;100.00;100244.84;106805;1300;22015;-79
2024/02/03 05:19:28;;;;;;;8.80;8.00;;;;;;;8.09;100.00;100241.98;107289;1300;22163;-77
2024/02/03 05:22:11;;;;;;;9.30;8.50;;;;;;;8.06;100.00;100245.70;107112;1300;22090;-79
2024/02/03 05:25:16;;;;;;;;;;;;;;;;;;;;;
2024/02/03 05:28:15;;;;;;;;;;;;;;;;;;;;;
2024/02/03 05:31:18;;;;;;;9.10;8.20;;;;;;;8.01;100.00;100241.52;107552;1295;22014;-80
2024/02/03 05:34:20;;;;;;;9.80;7.80;;;;;;;7.98;100.00;100238.99;107967;1291;21999;-80
2024/02/03 05:37:05;;;;;;;9.60;8.80;;;;;;;7.97;100.00;100240.60;108234;1284;23056;-78
2024/02/03 05:39:44;;;;;;;11.00;10.10;;;;;;;7.98;100.00;100242.98;109269;1270;23059;-81
2024/02/03 05:43:03;;;;;;;12.20;11.10;;;;;;;7.96;100.00;100240.27;109805;1269;23950;-80
2024/02/03 05:47:09;;;;;;;9.70;8.60;;;;;;;7.93;100.00;100240.70;109886;1270;22397;-80
2024/02/03 05:50:19;;;;;;;10.30;9.30;;;;;;;7.92;100.00;100238.31;110793;1262;21962;-80
2024/02/03 05:53:36;;;;;;;9.00;8.20;;;;;;;7.92;100.00;100233.98;109740;1269;21997;-81
2024/02/03 05:57:29;;;;;;;;;;;;;;;;;;;;;
2024/02/03 06:01:30;;;;;;;8.10;7.30;;;;;;;7.89;100.00;100230.44;110082;1266;24415;-81
2024/02/03 06:04:58;;;;;;;8.00;7.20;;;;;;;7.89;100.00;100234.76;110037;1270;21992;-80
2024/02/03 06:08:12;;;;;;;13.80;12.00;;;;;;;7.91;100.00;100242.48;109739;1270;21982;-81
2024/02/03 06:11:49;;;;;;;;;;;;;;;;;;;;;
2024/02/03 06:16:02;;;;;;;10.90;9.70;;;;;;;7.91;100.00;100248.39;109509;1274;21979;-81
2024/02/03 06:19:29;;;;;;;11.10;9.20;;;;;;;7.94;100.00;100250.02;109037;1279;24982;-82
2024/02/03 06:23:01;;;;;;;10.20;9.30;;;;;;;8.00;100.00;100252.98;109110;1279;22013;-81
2024/02/03 06:26:16;;;;;;;11.50;10.50;;;;;;;8.04;100.00;100250.43;109118;1278;23429;-81
2024/02/03 06:29:12;;;;;;;;;;;;;;;;;;;;;
2024/02/03 06:32:46;;;;;;;10.40;9.40;;;;;;;8.15;100.00;100253.08;108621;1286;22050;-82
2024/02/03 06:36:16;;;;;;;11.30;10.20;;;;;;;8.13;100.00;100253.14;108733;1281;21991;-80
2024/02/03 06:40:02;;;;;;;12.60;11.40;;;;;;;8.15;100.00;100253.39;108725;1281;22012;-79
2024/02/03 06:47:18;;;;;;;11.00;10.10;;;;;;;8.16;100.00;100262.77;108151;1287;23145;-79
2024/02/03 06:50:11;;;;;;;11.00;10.00;;;;;;;8.18;100.00;100262.52;108524;1284;23647;-82
2024/02/03 06:53:10;;;;;;;11.30;10.10;;;;;;;8.20;100.00;100263.85;108647;1284;23663;-80
2024/02/03 06:55:57;;;;;;;;;;;;;;;;;;;;;
2024/02/03 06:59:04;;;;;;;10.80;9.90;;;;;;;8.23;100.00;100263.92;108636;1284;22006;-80
2024/02/03 07:02:03;;;;;;;12.40;11.30;;;;;;;8.24;100.00;100268.74;108654;1284;21993;-79
2024/02/03 07:05:09;;;;;;;10.20;9.20;;;;;;;8.28;100.00;100265.87;108684;1284;22120;-80
2024/02/03 07:08:03;;;;;;;9.60;8.80;;;;;;;8.31;100.00;100269.95;108574;1284;22493;-79
2024/02/03 07:11:31;;;;;;;11.20;10.20;;;;;;;8.31;100.00;100276.00;108382;1284;22001;-80
2024/02/03 07:15:05;;;;;;;;;;;;;;;;;;;;;
2024/02/03 07:18:06;;;;;;;12.70;11.50;;;;;;;8.34;100.00;100278.88;109019;1271;23793;-78
2024/02/03 07:21:26;;;;;;;10.80;9.20;;;;;;;8.36;100.00;100281.75;110009;1265;22136;-76
2024/02/03 07:25:46;;;;;;;10.50;9.50;;;;;;;8.37;100.00;100280.70;110061;1265;21991;-77
2024/02/03 07:29:51;;;;;;;10.80;9.10;;;;;;;8.38;100.00;100282.90;110194;1265;21983;-79
2024/02/03 07:33:12;;;;;;;11.20;9.90;;;;;;;8.43;100.00;100287.83;110111;1267;23628;-77
2024/02/03 07:36:57;;;;;;;9.10;8.20;;;;;;;8.48;100.00;100282.81;109608;1271;23601;-75
2024/02/03 07:39:48;;;;;;;8.70;7.20;;;;;;;8.51;100.00;100285.48;108818;1278;22000;-76
2024/02/03 07:42:46;;;;;;;9.90;9.00;;;;;;;8.55;100.00;100285.71;108617;1279;22982;-77
2024/02/03 07:45:47;;;;;;;8.60;7.70;;;;;;;8.58;100.00;100287.71;108758;1279;22005;-76
2024/02/03 07:48:25;;;;;;;9.50;8.60;;;;;;;8.59;100.00;100290.63;108545;1283;22003;-77
2024/02/03 07:51:20;;;;;;;9.50;8.70;;;;;;;8.60;100.00;100290.77;108448;1284;21973;-75
2024/02/03 07:54:13;;;;;;;10.80;9.70;;;;;;;8.62;100.00;100295.75;108134;1286;23657;-75
2024/02/03 07:57:01;;;;;;;9.80;8.90;;;;;;;8.64;100.00;100301.24;108492;1284;21996;-76
2024/02/03 08:00:16;;;;;;;10.90;9.90;;;;;;;8.64;100.00;100292.92;108475;1284;23152;-77
2024/02/03 08:03:03;;;;;;;10.90;9.90;;;;;;;8.68;100.00;100296.79;108444;1284;23741;-76
2024/02/03 08:05:52;;;;;;;10.00;9.10;;;;;;;8.66;100.00;100292.85;108514;1283;21993;-77
2024/02/03 08:08:56;;;;;;;8.90;8.20;;;;;;;8.65;100.00;100291.83;108455;1283;23126;-77
2024/02/03 08:11:59;;;;;;;10.40;9.30;;;;;;;8.67;100.00;100293.52;108560;1278;22068;-75
2024/02/03 08:14:43;;;;;;;;;;;;;;;8.68;100.00;100293.66;108825;1278;23120;-78
2024/02/03 08:17:32;;;;;;;10.30;9.40;;;;;;;8.60;100.00;100291.30;109220;1272;21993;-75
2024/02/03 08:20:12;;;;;;;10.60;9.60;;;;;;;8.61;100.00;100286.78;109002;1275;23055;-76
2024/02/03 08:22:46;;;;;;;11.20;10.20;;;;;;;8.67;100.00;100296.80;108702;1275;21989;-75
2024/02/03 08:25:36;;;;;;;10.90;9.80;;;;;;;8.70;100.00;100299.49;109244;1269;22018;-81
2024/02/03 08:28:17;;;;;;;10.90;9.80;;;;;;;8.82;100.00;100298.95;109482;1269;22043;-80
2024/02/03 08:31:02;;;;;;;10.30;9.20;;;;;;;8.89;100.00;100302.19;109264;1269;22047;-80
2024/02/03 08:33:41;;;;;;;10.80;9.50;;;;;;;8.97;100.00;100307.48;109755;1269;21970;-80
2024/02/03 08:36:51;;;;;;;9.20;8.30;;;;;;;9.02;100.00;100307.88;109602;1269;21989;-80
2024/02/03 08:41:08;;;;;;;;;;;;;;;;;;;;;
2024/02/03 08:44:46;;;;;;;10.30;9.30;;;;;;;9.12;100.00;100301.79;109982;1268;23042;-79
2024/02/03 08:48:32;;;;;;;11.30;10.20;;;;;;;9.13;100.00;100293.98;108735;1280;22452;-80
2024/02/03 08:51:59;;;;;;;;;;;;;;;;;;;;;
2024/02/03 08:55:15;;;;;;;13.40;12.10;;;;;;;9.29;100.00;100312.89;108693;1282;22011;-77
2024/02/03 08:58:26;;;;;;;10.20;9.30;;;;;;;9.32;100.00;100312.27;108518;1282;22019;-78
2024/02/03 09:02:37;;;;;;;;;;;;;;;;;;;;;
2024/02/03 09:05:54;;;;;;;10.70;9.70;;;;;;;9.35;100.00;100323.27;108221;1281;23758;-79
2024/02/03 09:09:14;;;;;;;10.00;9.10;;;;;;;9.34;100.00;100327.48;108463;1283;22001;-78
2024/02/03 09:12:33;;;;;;;9.50;8.70;;;;;;;9.36;100.00;100331.58;108188;1285;21992;-79
2024/02/03 09:15:59;;;;;;;;;;;;;;;;;;;;;
2024/02/03 09:19:01;;;;;;;9.40;8.60;;;;;;;9.33;100.00;100330.64;108442;1282;22003;-76
2024/02/03 09:22:44;;;;;;;10.90;10.00;;;;;;;9.25;100.00;100319.08;108461;1283;22016;-76
2024/02/03 09:26:03;;;;;;;9.70;8.80;;;;;;;9.24;100.00;100306.97;108460;1283;22012;-77
2024/02/03 09:29:39;;;;;;;9.00;8.20;;;;;;;9.24;100.00;100294.30;108507;1283;22015;-76
2024/02/03 09:32:49;;;;;;;9.00;8.20;;;;;;;9.41;100.00;100305.91;108310;1287;22332;-77
2024/02/03 09:36:07;;;;;;;8.10;7.40;;;;;;;9.57;100.00;100306.42;108192;1287;22008;-78
2024/02/03 09:38:45;;;;;;;8.70;8.00;;;;;;;9.77;100.00;100310.39;108179;1287;22003;-77
2024/02/03 09:41:23;;;;;;;10.30;9.30;;;;;;;9.91;100.00;100311.96;108417;1281;22108;-76
2024/02/03 09:44:07;;;;;;;9.80;9.00;;;;;;;10.03;100.00;100308.23;108487;1281;22984;-74
2024/02/03 09:46:43;;;;;;;10.30;9.40;;;;;;;10.14;100.00;100306.09;108474;1280;23653;-75
2024/02/03 09:49:35;;;;;;;9.80;8.90;;;;;;;10.31;100.00;100306.20;108863;1274;21977;-76
2024/02/03 09:52:50;;;;;;;9.70;8.90;;;;;;;10.48;100.00;100300.35;108540;1281;22059;-76
2024/02/03 09:56:20;;;;;;;10.20;9.30;;;;;;;10.73;100.00;100297.48;108720;1279;22002;-78
2024/02/03 09:59:38;;;;;;;8.80;7.90;;;;;;;10.87;100.00;100297.62;108784;1280;22002;-76
2024/02/03 10:03:08;;;;;;;10.10;9.00;;;;;;;10.94;100.00;100296.98;108572;1276;22509;-76
2024/02/03 10:06:11;;;;;;;9.10;8.30;;;;;;;10.97;100.00;100302.45;108960;1276;21992;-76
2024/02/03 10:09:29;;;;;;;9.30;8.40;;;;;;;10.86;100.00;100298.89;108919;1276;22226;-76
2024/02/03 10:12:37;;;;;;;9.70;8.70;;;;;;;10.73;100.00;100294.52;108956;1276;22007;-76
2024/02/03 10:15:58;;;;;;;11.10;10.10;;;;;;;10.63;100.00;100293.34;108604;1281;23647;-76
2024/02/03 10:18:50;;;;;;;9.60;8.80;;;;;;;10.55;100.00;100294.52;108277;1282;22599;-77
2024/02/03 10:22:04;;;;;;;10.60;9.70;;;;;;;10.49;100.00;100300.65;108664;1279;21995;-77
2024/02/03 10:25:26;;;;;;;11.60;10.50;;;;;;;10.39;100.00;100297.41;109087;1275;23034;-78
2024/02/03 10:28:08;;;;;;;11.20;10.20;;;;;;;10.29;100.00;100288.16;108947;1275;22003;-76
2024/02/03 10:30:55;;;;;;;12.10;11.00;;;;;;;10.25;100.00;100287.80;109278;1273;23729;-77
2024/02/03 10:33:47;;;;;;;13.10;11.80;;;;;;;10.21;100.00;100294.05;109652;1270;21980;-76
2024/02/03 10:36:54;;;;;;;14.10;12.90;;;;;;;10.14;100.00;100296.20;109503;1270;22013;-79
2024/02/03 10:40:30;;;;;;;13.20;12.00;;;;;;;10.09;100.00;100295.17;109926;1266;22039;-78
2024/02/03 10:43:38;;;;;;;13.30;12.10;;;;;;;10.03;100.00;100299.05;110328;1261;21987;-76
2024/02/03 10:47:05;;;;;;;;;;;;;;;;;;;;;
2024/02/03 10:50:09;;;;;;;12.60;11.50;;;;;;;10.02;100.00;100293.69;109349;1272;22005;-77
2024/02/03 10:53:32;;;;;;;12.90;11.70;;;;;;;9.99;100.00;100297.96;109109;1272;22030;-76
2024/02/03 10:57:51;;;;;;;;;;;;;;;;;;;;;
2024/02/03 11:00:59;;;;;;;;;;;;;;;;;;;;;
2024/02/03 11:04:38;;;;;;;11.30;9.90;;;;;;;9.92;100.00;100304.48;108255;1286;23104;-76
2024/02/03 11:07:38;;;;;;;12.40;11.30;;;;;;;9.96;100.00;100302.42;108493;1286;22006;-77
2024/02/03 11:10:18;;;;;;;10.80;9.80;;;;;;;9.99;100.00;100297.11;108196;1281;22010;-77
2024/02/03 11:13:42;;;;;;;12.00;10.90;;;;;;;10.01;100.00;100296.69;108268;1286;23624;-77
2024/02/03 11:16:16;;;;;;;14.10;12.80;;;;;;;10.01;100.00;100298.08;108685;1280;23657;-76
2024/02/03 11:18:51;;;;;;;13.90;12.50;;;;;;;10.04;100.00;100302.28;108742;1280;23734;-78
2024/02/03 11:21:36;;;;;;;12.70;11.50;;;;;;;10.09;100.00;100309.06;108867;1281;22040;-77
2024/02/03 11:24:13;;;;;;;12.00;11.00;;;;;;;10.11;100.00;100311.63;108590;1281;23711;-78
2024/02/03 11:28:00;;;;;;;;;;;;;;;;;;;;;
2024/02/03 11:30:35;;;;;;;10.50;9.60;;;;;;;10.07;100.00;100314.02;108258;1287;23087;-77
2024/02/03 11:33:18;;;;;;;12.90;11.70;;;;;;;10.09;100.00;100307.50;108197;1287;22014;-78
2024/02/03 11:36:15;;;;;;;13.70;12.40;;;;;;;10.10;100.00;100314.59;108228;1287;22461;-76
2024/02/03 11:39:38;;;;;;;15.40;14.00;;;;;;;10.17;100.00;100304.27;108860;1272;22092;-75
2024/02/03 11:42:51;;;;;;;10.20;9.20;;;;;;;10.13;100.00;100297.30;108450;1285;22011;-78
2024/02/03 11:50:15;;;;;;;11.50;10.50;;;;;;;10.27;100.00;100291.73;107650;1294;22144;-81
2024/02/03 11:53:46;;;;;;;10.90;9.80;;;;;;;10.37;100.00;100298.50;107671;1294;22045;-76
2024/02/03 11:56:19;;;;;;;7.40;6.80;;;;;;;10.42;100.00;100302.15;107385;1294;23650;-77
2024/02/03 11:58:58;;;;;;;8.70;7.90;;;;;;;10.46;100.00;100298.70;107784;1289;22005;-76
2024/02/03 12:01:48;;;;;;;10.60;9.60;;;;;;;10.49;100.00;100293.02;108156;1286;22001;-77
2024/02/03 12:09:03;;;;;;;;;;;;;;;10.42;100.00;100276.02;108065;1289;22008;-78
2024/02/03 12:11:44;;;;;;;11.10;9.20;;;;;;;10.37;100.00;100291.36;108109;1289;22837;-77
2024/02/03 12:14:51;;;;;;;10.80;9.30;;;;;;;10.39;100.00;100289.90;108468;1284;23683;-77
2024/02/03 12:18:03;;;;;;;9.40;8.60;;;;;;;10.45;100.00;100294.92;108210;1284;23014;-75
2024/02/03 12:20:37;;;;;;;9.20;8.40;;;;;;;10.47;100.00;100288.57;108574;1280;23970;-79
2024/02/03 12:23:39;;;;;;;;;;;;;;;;;;;;;
2024/02/03 12:27:01;;;;;;;10.00;7.30;;;;;;;10.55;100.00;100297.48;108898;1272;21990;-76
2024/02/03 12:30:30;;;;;;;;;;;;;;;;;;;;;
2024/02/03 12:35:01;;;;;;;6.50;5.90;;;;;;;10.54;100.00;100296.66;109210;1274;21986;-77
2024/02/03 12:39:25;;;;;;;7.20;6.40;;;;;;;10.45;100.00;100304.46;108727;1282;22070;-77
2024/02/03 12:46:41;;;;;;;8.40;7.50;;;;;;;10.45;100.00;100294.23;108468;1284;23465;-75
2024/02/03 12:50:06;;;;;;;6.00;5.50;;;;;;;10.44;100.00;100290.04;108629;1284;22023;-77
2024/02/03 12:53:44;;;;;;;;;;;;;;;;;;;;;
2024/02/03 12:58:08;;;;;;;6.90;6.10;;;;;;;10.43;100.00;100276.36;108474;1284;24170;-77
2024/02/03 13:01:42;;;;;;;16.60;14.20;;;;;;;10.40;100.00;100275.45;108191;1286;22016;-77
2024/02/03 13:04:47;;;;;;;;;;;;;;;;;;;;;
2024/02/03 13:08:07;;;;;;;6.40;5.90;;;;;;;10.36;100.00;100284.82;108269;1285;23647;-76
2024/02/03 13:15:56;;;;;;;;;;;;;;;;;;;;;
2024/02/03 13:19:36;;;;;;;;;;;;;;;;;;;;;
2024/02/03 13:22:34;;;;;;;8.80;7.90;;;;;;;10.27;100.00;100276.05;107954;1290;22003;-75
2024/02/03 13:25:08;;;;;;;8.00;7.20;;;;;;;10.31;100.00;100272.26;107831;1291;22027;-77
2024/02/03 13:28:08;;;;;;;8.80;7.80;;;;;;;10.32;100.00;100271.90;107903;1290;22031;-78
2024/02/03 13:30:49;;;;;;;8.50;7.30;;;;;;;10.27;100.00;100271.89;108001;1290;22055;-78
2024/02/03 13:33:25;;;;;;;10.30;8.00;;;;;;;10.21;100.00;100269.14;108042;1291;22677;-78
2024/02/03 13:37:04;;;;;;;;;;;;;;;;;;;;;
2024/02/03 13:43:48;;;;;;;8.30;7.50;;;;;;;10.10;100.00;100272.86;108371;1287;23714;-78
2024/02/03 13:51:33;;;;;;;;;;;;;;;;;;;;;
2024/02/03 13:59:12;;;;;;;7.10;6.40;;;;;;;10.07;100.00;100267.95;107785;1294;23977;-80
2024/02/03 14:06:42;;;;;;;6.90;6.10;;;;;;;10.20;100.00;100284.99;107127;1301;23698;-79
2024/02/03 14:15:13;;;;;;;8.00;7.20;;;;;;;10.54;100.00;100284.63;109640;1273;22971;-81
2024/02/03 14:18:16;;;;;;;7.40;6.70;;;;;;;10.56;100.00;100290.28;110011;1269;21983;-85
2024/02/03 14:21:41;;;;;;;;;;;;;;;;;;;;;
2024/02/03 14:26:05;;;;;;;;;;;;;;;;;;;;;
2024/02/03 14:30:56;;;;;;;;;;;;;;;;;;;;;
2024/02/03 14:40:43;;;;;;;;;;;;;;;;;;;;;
2024/02/03 14:44:52;;;;;;;15.70;10.30;;;;;;;10.73;100.00;100293.10;108517;1289;21677;-81
2024/02/03 14:49:33;;;;;;;;;;;;;;;;;;;;;
2024/02/03 14:53:09;;;;;;;10.50;7.70;;;;;;;10.74;100.00;100287.34;106463;1308;22392;-80
2024/02/03 14:56:59;;;;;;;8.00;7.20;;;;;;;10.92;100.00;100288.90;107711;1296;548395;-80
2024/02/03 15:06:02;;;;;;;;;;;;;;;;;;;;;
2024/02/03 15:10:36;;;;;;;5.10;4.60;;;;;;;10.78;100.00;100309.83;104583;1285;5461069;-80
2024/02/03 15:29:08;;;;;;;6.10;5.00;;;;;;;12.12;100.00;100326.50;110677;1259;547810;-81
2024/02/03 15:32:17;;;;;;;5.10;4.60;;;;;;;12.27;100.00;100322.21;110997;1255;253099;-77
2024/02/03 15:35:40;;;;;;;5.20;4.60;;;;;;;11.70;100.00;100324.88;111449;1255;21964;-79
2024/02/03 15:38:58;;;;;;;5.60;4.30;;;;;;;11.36;100.00;100326.49;111385;1255;22008;-80
2024/02/03 15:42:03;;;;;;;;;;;;;;;;;;;;;
2024/02/03 15:45:12;;;;;;;;;;;;;;;;;;;;;
2024/02/03 15:48:54;;;;;;;5.50;4.90;;;;;;;10.76;100.00;100340.54;111786;1249;22054;-81
2024/02/03 15:52:32;;;;;;;6.70;5.40;;;;;;;10.61;100.00;100348.77;111830;1251;21972;-81
2024/02/03 15:55:51;;;;;;;6.40;5.70;;;;;;;10.55;100.00;100343.60;110871;1261;21997;-81
2024/02/03 15:58:58;;;;;;;6.90;6.20;;;;;;;10.56;100.00;100335.20;110538;1261;21986;-79
2024/02/03 16:03:05;;;;;;;8.20;6.90;;;;;;;10.51;100.00;100330.16;110865;1261;22888;-83
2024/02/03 16:05:46;;;;;;;10.40;7.70;;;;;;;10.44;100.00;100327.46;110785;1261;21974;-80
2024/02/03 16:09:12;;;;;;;8.40;7.20;;;;;;;10.37;100.00;100343.06;111163;1256;22106;-79
2024/02/03 16:11:58;;;;;;;9.00;7.20;;;;;;;10.33;100.00;100348.21;110437;1263;22000;-81
2024/02/03 16:15:41;;;;;;;10.40;7.80;;;;;;;10.28;100.00;100353.77;110735;1263;24528;-82
2024/02/03 16:19:30;;;;;;;;;;;;;;;;;;;;;
2024/02/03 16:23:33;;;;;;;;;;;;;;;;;;;;;
2024/02/03 16:26:54;;;;;;;10.10;8.10;;;;;;;10.09;100.00;100365.94;110345;1257;21967;-79
2024/02/03 16:30:52;;;;;;;;;;;;;;;;;;;;;
2024/02/03 16:35:10;;;;;;;9.40;6.40;;;;;;;9.96;100.00;100373.17;111883;1247;21949;-80
2024/02/03 16:39:05;;;;;;;8.40;6.10;;;;;;;9.91;100.00;100371.78;111213;1257;22430;-81
2024/02/03 16:42:19;;;;;;;14.40;11.70;;;;;;;9.92;100.00;100382.50;111380;1254;22041;-79
2024/02/03 16:45:57;;;;;;;6.90;5.00;;;;;;;9.94;100.00;100382.82;111500;1254;22012;-80
2024/02/03 16:48:57;;;;;;;;;;;;;;;;;;;;;
2024/02/03 16:53:30;;;;;;;6.50;5.30;;;;;;;9.91;100.00;100382.04;111447;1229;21958;-79
2024/02/03 16:56:29;;;;;;;8.10;7.30;;;;;;;9.88;100.00;100385.80;113621;1235;21947;-77
2024/02/03 16:59:40;;;;;;;8.00;7.20;;;;;;;9.88;100.00;100384.40;113161;1235;23622;-80
2024/02/03 17:02:25;;;;;;;7.80;6.80;;;;;;;9.90;100.00;100382.23;113405;1235;23584;-79
2024/02/03 17:05:14;;;;;;;7.10;6.40;;;;;;;9.90;100.00;100381.35;113142;1237;22465;-84
2024/02/03 17:08:27;;;;;;;;;;;;;;;;;;;;;
2024/02/03 17:11:50;;;;;;;9.00;6.40;;;;;;;9.77;100.00;100365.00;113396;1237;21952;-86
2024/02/03 17:14:30;;;;;;;7.70;6.90;;;;;;;9.87;100.00;100377.50;113486;1237;22027;-80
2024/02/03 17:17:20;;;;;;;7.80;7.00;;;;;;;9.87;100.00;100370.00;113263;1238;22085;-84
2024/02/03 17:20:18;;;;;;;7.40;6.70;;;;;;;9.87;100.00;100365.65;113034;1238;21934;-83
2024/02/03 17:23:21;;;;;;;6.70;6.00;;;;;;;9.84;100.00;100361.42;113481;1238;21971;-81
2024/02/03 17:26:41;;;;;;;10.00;6.70;;;;;;;9.79;100.00;100357.23;112911;1242;22145;-81
2024/02/03 17:29:20;;;;;;;6.90;6.20;;;;;;;9.81;100.00;100358.23;112545;1242;21922;-79
2024/02/03 17:32:04;;;;;;;9.00;8.10;;;;;;;9.84;100.00;100359.33;112217;1247;23775;-80
2024/02/03 17:34:45;;;;;;;10.70;9.60;;;;;;;9.86;100.00;100364.48;112122;1245;22102;-80
2024/02/03 17:37:16;;;;;;;8.20;7.30;;;;;;;9.88;100.00;100366.85;112213;1242;21999;-81
2024/02/03 17:40:07;;;;;;;10.40;6.90;;;;;;;9.88;100.00;100369.11;112411;1242;21957;-79
2024/02/03 17:43:00;;;;;;;9.40;8.50;;;;;;;9.87;100.00;100367.42;112516;1242;21969;-81
2024/02/03 17:45:54;;;;;;;8.90;6.80;;;;;;;9.81;100.00;100370.05;113253;1237;22159;-80
2024/02/03 17:49:08;;;;;;;;;;;;;;;;;;;;;
2024/02/03 17:51:53;;;;;;;;;;;;;;;;;;;;;
2024/02/03 17:55:50;;;;;;;;;;;;;;;;;;;;;
2024/02/03 17:59:07;;;;;;;7.90;7.10;;;;;;;9.63;100.00;100375.84;111891;1246;22013;-79
2024/02/03 18:03:46;;;;;;;;;;;;;;;;;;;;;
2024/02/03 18:07:54;;;;;;;7.40;6.70;;;;;;;9.58;100.00;100382.96;111401;1256;22744;-79
2024/02/03 18:13:27;;;;;;;10.20;9.10;;;;;;;9.58;100.00;100378.98;110819;1266;21963;-79
2024/02/03 18:36:45;;;;;;;19.20;17.50;;;;;;;11.21;100.00;100365.04;101607;1276;10196034;-80
2024/02/03 18:39:47;;;;;;;8.60;7.70;;;;;;;10.71;100.00;100364.04;109310;1276;23039;-85
2024/02/03 18:43:08;;;;;;;8.30;7.20;;;;;;;10.42;100.00;100368.41;109216;1278;22003;-84
2024/02/03 18:46:10;;;;;;;9.10;7.80;;;;;;;10.28;100.00;100364.91;108991;1279;21985;-82
2024/02/03 19:09:03;;;;;;;9.20;6.50;;;;;;;11.42;100.00;100346.19;108215;1289;548092;-82
2024/02/03 19:13:09;;;;;;;8.10;5.80;;;;;;;11.39;100.00;100336.25;103538;1261;9595293;-83
2024/02/03 19:17:26;;;;;;;;;;;;;;;;;;;;;
2024/02/03 19:31:11;;;;;;;;;;;;;;;;;;;;;
2024/02/03 19:46:08;;;;;;;;;;;;;;;;;;;;;
2024/02/03 19:50:15;;;;;;;4.80;4.20;;;;;;;10.98;100.00;100343.83;105152;1273;6073393;-81
2024/02/03 19:54:27;;;;;;;5.10;4.00;;;;;;;10.20;100.00;100326.92;109044;1276;23734;-81
2024/02/03 19:58:47;;;;;;;;;;;;;;;;;;;;;
2024/02/03 20:03:13;;;;;;;;;;;;;;;;;;;;;
2024/02/03 20:06:21;;;;;;;6.70;5.70;;;;;;;9.60;100.00;100343.81;107843;1298;23738;-79
2024/02/03 20:12:17;;;;;;;2.90;2.70;;;;;;;9.57;100.00;100342.20;107368;1303;22095;-80
2024/02/03 20:25:52;;;;;;;6.90;5.70;;;;;;;10.90;100.00;100320.61;108532;1279;548762;-81
2024/02/03 20:29:21;;;;;;;;;;;;;;;;;;;;;
2024/02/03 20:34:04;;;;;;;;;;;;;;;;;;;;;
2024/02/03 20:39:01;;;;;;;;;;;;;;;;;;;;;
2024/02/03 20:47:22;;;;;;;;;;;;;;;;;;;;;
2024/02/03 20:51:22;;;;;;;6.30;5.70;;;;;;;9.26;100.00;100324.27;109205;1277;22695;-80
2024/02/03 20:54:37;;;;;;;8.40;5.80;;;;;;;9.40;100.00;100316.33;108006;1289;544333;-78
2024/02/03 20:58:22;;;;;;;7.40;5.70;;;;;;;9.31;100.00;100319.09;111057;1260;21992;-79
2024/02/03 21:02:03;;;;;;;6.40;5.80;;;;;;;9.10;100.00;100298.05;109562;1274;21988;-78
2024/02/03 21:05:02;;;;;;;7.30;6.20;;;;;;;9.13;100.00;100312.35;109127;1278;23080;-78
2024/02/03 21:08:55;;;;;;;7.90;6.10;;;;;;;9.08;100.00;100308.01;105109;1276;5316303;-80
2024/02/03 21:12:36;;;;;;;5.60;5.10;;;;;;;9.00;100.00;100308.77;108319;1288;21969;-81
2024/02/03 21:15:48;;;;;;;5.70;5.10;;;;;;;8.99;100.00;100309.17;108176;1288;23826;-76
2024/02/03 21:41:27;;;;;;;5.20;4.10;;;;;;;10.66;100.00;100264.09;110886;1251;548211;-80
2024/02/03 21:46:09;;;;;;;6.40;4.40;;;;;;;10.41;100.00;100258.96;108231;1248;21973;-78
2024/02/03 21:49:59;;;;;;;;;;;;;;;;;;;;;
2024/02/03 21:54:22;;;;;;;;;;;;;;;;;;;;;
2024/02/03 21:58:59;;;;;;;;;;;;;;;;;;;;;
2024/02/03 22:02:40;;;;;;;4.30;3.30;;;;;;;9.21;100.00;100250.10;111608;1255;23311;-81
2024/02/03 22:10:18;;;;;;;5.60;3.50;;;;;;;9.00;100.00;100260.55;111005;1263;21992;-81
2024/02/03 22:14:26;;;;;;;5.70;4.20;;;;;;;8.95;100.00;100258.61;110849;1263;21965;-80
2024/02/03 22:18:14;;;;;;;7.00;4.20;;;;;;;8.89;100.00;100255.67;110519;1266;24344;-82
2024/02/03 22:21:25;;;;;;;6.30;4.10;;;;;;;8.86;100.00;100256.65;109949;1266;21966;-80
2024/02/03 22:25:02;;;;;;;5.00;3.00;;;;;;;8.84;100.00;100263.48;109988;1266;21972;-80
2024/02/03 22:28:15;;;;;;;6.30;3.80;;;;;;;8.87;100.00;100263.02;110417;1263;22016;-78
2024/02/03 22:31:36;;;;;;;9.00;4.60;;;;;;;8.91;100.00;100261.34;110417;1269;21973;-80
2024/02/03 22:39:20;;;;;;;6.20;4.20;;;;;;;9.03;100.00;100246.55;111231;1258;21994;-81
2024/02/03 22:42:52;;;;;;;5.70;4.70;;;;;;;9.08;100.00;100242.55;110798;1261;21955;-84
2024/02/03 22:46:20;;;;;;;5.00;4.30;;;;;;;9.11;100.00;100237.42;110027;1266;21998;-81
2024/02/03 22:49:50;;;;;;;5.90;3.40;;;;;;;9.32;100.00;100239.49;108198;1293;548153;-81
2024/02/03 22:53:39;;;;;;;8.80;4.40;;;;;;;9.26;100.00;100240.73;111079;1260;23606;-81
2024/02/03 22:56:55;;;;;;;;;;;;;;;;;;;;;
2024/02/03 23:00:40;;;;;;;9.80;6.60;;;;;;;9.23;100.00;100240.85;111272;1260;21969;-82
2024/02/03 23:04:08;;;;;;;5.90;4.60;;;;;;;9.21;100.00;100233.45;111167;1258;630690;-84
2024/02/03 23:07:40;;;;;;;;;;;;;;;;;;;;;
2024/02/03 23:10:48;;;;;;;;;;;;;;;;;;;;;
2024/02/03 23:14:34;;;;;;;6.30;4.10;;;;;;;9.09;100.00;100218.25;111023;1261;21987;-80
2024/02/03 23:18:14;;;;;;;;;;;;;;;9.07;100.00;100218.10;110402;1265;21967;-82
2024/02/03 23:22:07;;;;;;;;;;;;;;;;;;;;;
2024/02/03 23:26:04;;;;;;;;;;;;;;;;;;;;;
2024/02/03 23:59:54;;;;;;;6.10;3.90;;;;;;;10.19;100.00;100188.55;111237;1260;23016;-81
